LFTHLFKB

Guest
Details From LFTH - Le Palyvestre Navy
To LFKB - Bastia Poretta
Flight Number -
Tags generated
Created
Modified
Stats Distance 150 nm / 279 km
Max Altitude 9,200 ft / 2,804 m
Waypoints 3
Social Downloads 0
Likes 0
Share VATSIM

Download

Looking for another format? Having issues loading an existing format? Contact us
Advertisement - Login to hide

Notes

Basic altitude profile: - Ascent Rate: 2500ft/min - Ascent Speed: 250kts - Cruise Altitude: 35000ft - Cruise Speed: 420kts - Descent Rate: 1500ft/min - Descent Speed: 250kts

Route

LFTH GORIT LFKB

ID Type Via Altitude Latitude Longitude Leg Dist Tot Dist Heading (true) Name
O LFTH APT - 0 ft / 0 m 43.09812˚ 6.14976˚ - 0 nm - Le Palyvestre Navy
GORIT FIX - 9,200 ft / 2,804 m 42.71694˚ 8.52806˚ 107 nm 107 nm 102° / 103° -
O LFKB APT - 0 ft / 0 m 42.55251˚ 9.48371˚ 43 nm 150 nm 103° / 103° Bastia Poretta

Altitude Profile

Advertisement - Login to hide

LFTH

Details ICAO LFTH (TLN)
Name Le Palyvestre Navy
Region France
Timezone Europe/Paris (UTC+1.0)
Stats Elevation 6 ft / 2 m (AMSL)
Location 43.098120° 6.149761°
Runways 2
Magnetic Variation 1.773° E

METAR

LFTH 182200Z AUTO 04012KT 9999 FEW027 BKN044 BKN052 08/05 Q1023 BECMG 07015G25KT

Decode

TAF

TAF LFTH 182000Z 1821/1921 04010KT 9999 BKN040 BECMG 1821/1824 07015G25KT CAVOK BECMG 1909/1912 VRB03KT

Decode

Departure Runways

ID Width Length Bearing (true) Bearing (mag) Surface Threshold Offset Overrun Length
05 148 ft / 45 m 6,956 ft / 2,120 m 51.12° 49.35° Concrete 722 ft / 220 m 361 ft / 110 m
14 164 ft / 50 m 6,302 ft / 1,921 m 135.18° 133.41° Concrete 951 ft / 290 m 0 ft / 0 m
23 148 ft / 45 m 6,956 ft / 2,120 m 231.13° 229.36° Concrete 0 ft / 0 m 141 ft / 43 m
32 164 ft / 50 m 6,302 ft / 1,921 m 315.20° 313.43° Concrete 295 ft / 90 m 443 ft / 135 m

LFKB

Details ICAO LFKB (BIA)
Name Bastia Poretta
Region France
Timezone Europe/Paris (UTC+1.0)
Stats Elevation 25 ft / 8 m (AMSL)
Location 42.552508° 9.483709°
Runways 1
Magnetic Variation 2.486° E

METAR

LFKB 182200Z AUTO 23004KT 9999 FEW100 04/00 Q1024 TEMPO SHRA FEW025TCU BKN030

Decode

TAF

TAF TAF LFKB 182000Z 1821/1921 24005KT 9999 FEW030 BKN050 BKN120 PROB30 TEMPO 1821/1904 SHRA FEW025TCU BKN030 TEMPO 1911/1915 11010KT TX10/1912Z TN04/1906Z

Decode

Destination Runways

ID Width Length Bearing (true) Bearing (mag) Surface Threshold Offset Overrun Length
16 148 ft / 45 m 8,273 ft / 2,522 m 162.83° 160.34° Concrete 0 ft / 0 m 131 ft / 40 m
34 148 ft / 45 m 8,273 ft / 2,522 m 342.84° 340.35° Concrete 0 ft / 0 m 0 ft / 0 m

Approach Navaids

Runway Type Ident Frequency Range Bearing (true) Bearing (mag) Slope Elevation
34 Localiser BP 111.35 MHz 27 nm / 50 km 342.81° 340.32° - 25 ft / 8 m (AMSL)
34 Glidescope BP 111.35 MHz 27 nm / 50 km 342.81° 340.32° 3.00° 25 ft / 8 m (AMSL)
34 DME BP 111.35 MHz 18 nm / 33 km - - - 69 ft / 21 m (AMSL)

Popular Alternatives